CheckWX is a tool to help pilots better visualize weather data.  It is not intended as a substitute for an official pre-flight weather briefing.

06:12:19 UTC

EGLL TAF
London Heathrow Airport
London, United Kingdom
TAF EGLL 280454Z 2806/2912 25012KT 9999 FEW025 TEMPO 2810/2816 26015G25KT PROB30 TEMPO 2812/2816 6000 SHRA SHGS PROB30 TEMPO 2910/2912 26015G25KT

Jan-28@
06:00 UTC

Jan-28 @ 06:00 UTC

Jan-29@
12:00 UTC

Jan-29 @ 12:00 UTC

TAF EGLL 280454Z 2806/2912 25012KT 9999 FEW025
Wind
  • 250° at 12 KTS
Cloud Levels
  • Few at 2,500' AGL

Jan-28@
10:00 UTC

Jan-28 @ 10:00 UTC

Jan-28@
16:00 UTC

Jan-28 @ 16:00 UTC

TEMPO 2810/2816 26015G25KT

Temporary

Temporary Changes expected for less than half the time period

Wind
  • 260° at 15 KTS
  • {Gusting to 25 KTS

Jan-28@
12:00 UTC

Jan-28 @ 12:00 UTC

Jan-28@
16:00 UTC

Jan-28 @ 16:00 UTC

PROB30 TEMPO 2812/2816 6000 SHRA SHGS

Temporary - 30% Likelihood

Temporary - 30% Likelihood during this time.

Conditions
Rain, Small hail

Jan-29@
10:00 UTC

Jan-29 @ 10:00 UTC

Jan-29@
12:00 UTC

Jan-29 @ 12:00 UTC

PROB30 TEMPO 2910/2912 26015G25KT

Temporary - 30% Likelihood

Temporary - 30% Likelihood during this time.

Wind
  • 260° at 15 KTS
  • {Gusting to 25 KTS